sensor_id;sensor_type;location;lat;lon;timestamp;pressure;altitude;pressure_sealevel;temperature;humidity
77869;BME280;67231;59.144;37.934;2023-12-07T00:00:23;102258.34;;;-10.63;74.98
77869;BME280;67231;59.144;37.934;2023-12-07T00:02:49;102256.50;;;-10.69;74.95
77869;BME280;67231;59.144;37.934;2023-12-07T00:05:16;102251.38;;;-10.69;75.55
77869;BME280;67231;59.144;37.934;2023-12-07T00:07:42;102259.91;;;-10.70;75.30
77869;BME280;67231;59.144;37.934;2023-12-07T00:10:09;102259.81;;;-10.73;75.69
77869;BME280;67231;59.144;37.934;2023-12-07T00:12:36;102255.44;;;-10.77;75.97
77869;BME280;67231;59.144;37.934;2023-12-07T00:15:02;102253.69;;;-10.79;75.63
77869;BME280;67231;59.144;37.934;2023-12-07T00:17:31;102244.19;;;-10.82;75.46
77869;BME280;67231;59.144;37.934;2023-12-07T00:19:58;102259.75;;;-10.76;75.72
77869;BME280;67231;59.144;37.934;2023-12-07T00:22:25;102256.34;;;-10.75;75.07
77869;BME280;67231;59.144;37.934;2023-12-07T00:24:52;102253.84;;;-10.73;75.88
77869;BME280;67231;59.144;37.934;2023-12-07T00:27:19;102258.06;;;-10.74;75.06
77869;BME280;67231;59.144;37.934;2023-12-07T00:29:45;102264.88;;;-10.76;75.56
77869;BME280;67231;59.144;37.934;2023-12-07T00:32:12;102272.56;;;-10.76;74.90
77869;BME280;67231;59.144;37.934;2023-12-07T00:34:38;102266.63;;;-10.75;75.88
77869;BME280;67231;59.144;37.934;2023-12-07T00:37:05;102275.13;;;-10.76;75.34
77869;BME280;67231;59.144;37.934;2023-12-07T00:39:32;102269.25;;;-10.72;76.09
77869;BME280;67231;59.144;37.934;2023-12-07T00:41:59;102272.69;;;-10.71;76.00
77869;BME280;67231;59.144;37.934;2023-12-07T00:44:25;102277.03;;;-10.69;75.92
77869;BME280;67231;59.144;37.934;2023-12-07T00:46:52;102276.94;;;-10.72;75.00
77869;BME280;67231;59.144;37.934;2023-12-07T00:49:19;102277.69;;;-10.76;75.90
77869;BME280;67231;59.144;37.934;2023-12-07T00:51:45;102264.88;;;-10.76;75.94
77869;BME280;67231;59.144;37.934;2023-12-07T00:54:11;102278.41;;;-10.82;75.24
77869;BME280;67231;59.144;37.934;2023-12-07T00:56:38;102269.69;;;-10.88;75.15
77869;BME280;67231;59.144;37.934;2023-12-07T00:59:05;102278.19;;;-10.91;75.83
77869;BME280;67231;59.144;37.934;2023-12-07T01:01:31;102282.41;;;-10.91;75.04
77869;BME280;67231;59.144;37.934;2023-12-07T01:03:58;102286.66;;;-10.93;75.41
77869;BME280;67231;59.144;37.934;2023-12-07T01:06:24;102284.81;;;-10.99;75.06
77869;BME280;67231;59.144;37.934;2023-12-07T01:08:51;102292.41;;;-11.02;75.58
77869;BME280;67231;59.144;37.934;2023-12-07T01:11:17;102285.50;;;-11.05;75.95
77869;BME280;67231;59.144;37.934;2023-12-07T01:13:43;102284.69;;;-11.04;75.97
77869;BME280;67231;59.144;37.934;2023-12-07T01:16:10;102292.50;;;-10.99;76.13
77869;BME280;67231;59.144;37.934;2023-12-07T01:18:36;102286.56;;;-10.96;76.24
77869;BME280;67231;59.144;37.934;2023-12-07T01:21:03;102294.16;;;-11.00;75.34
77869;BME280;67231;59.144;37.934;2023-12-07T01:23:32;102299.13;;;-11.07;75.71
77869;BME280;67231;59.144;37.934;2023-12-07T01:25:58;102302.44;;;-11.10;76.19
77869;BME280;67231;59.144;37.934;2023-12-07T01:28:28;102310.22;;;-11.07;76.12
77869;BME280;67231;59.144;37.934;2023-12-07T01:30:55;102306.69;;;-11.12;76.14
77869;BME280;67231;59.144;37.934;2023-12-07T01:33:21;102315.00;;;-11.19;75.83
77869;BME280;67231;59.144;37.934;2023-12-07T01:35:47;102313.28;;;-11.20;75.46
77869;BME280;67231;59.144;37.934;2023-12-07T01:38:14;102318.41;;;-11.20;75.65
77869;BME280;67231;59.144;37.934;2023-12-07T01:40:40;102323.50;;;-11.22;76.04
77869;BME280;67231;59.144;37.934;2023-12-07T01:43:06;102319.00;;;-11.29;75.93
77869;BME280;67231;59.144;37.934;2023-12-07T01:45:33;102314.66;;;-11.31;75.99
77869;BME280;67231;59.144;37.934;2023-12-07T01:47:59;102322.28;;;-11.34;76.12
77869;BME280;67231;59.144;37.934;2023-12-07T01:50:26;102317.88;;;-11.39;75.58
77869;BME280;67231;59.144;37.934;2023-12-07T01:52:57;102320.50;;;-11.37;75.82
77869;BME280;67231;59.144;37.934;2023-12-07T01:55:27;102312.03;;;-11.34;76.11
77869;BME280;67231;59.144;37.934;2023-12-07T01:57:55;102316.41;;;-11.30;75.40
77869;BME280;67231;59.144;37.934;2023-12-07T02:00:22;102326.69;;;-11.29;76.16
77869;BME280;67231;59.144;37.934;2023-12-07T02:02:50;102325.94;;;-11.26;76.33
77869;BME280;67231;59.144;37.934;2023-12-07T02:05:16;102326.66;;;-11.30;74.87
77869;BME280;67231;59.144;37.934;2023-12-07T02:07:43;102329.09;;;-11.35;75.88
77869;BME280;67231;59.144;37.934;2023-12-07T02:10:12;102329.88;;;-11.38;75.82
77869;BME280;67231;59.144;37.934;2023-12-07T02:12:42;102330.69;;;-11.39;75.93
77869;BME280;67231;59.144;37.934;2023-12-07T02:15:08;102325.53;;;-11.40;76.06
77869;BME280;67231;59.144;37.934;2023-12-07T02:21:28;102326.25;;;-11.46;74.89
77869;BME280;67231;59.144;37.934;2023-12-07T02:23:57;102339.75;;;-11.50;74.91
77869;BME280;67231;59.144;37.934;2023-12-07T02:26:36;102340.53;;;-11.52;75.79
77869;BME280;67231;59.144;37.934;2023-12-07T02:29:04;102344.69;;;-11.56;75.50
77869;BME280;67231;59.144;37.934;2023-12-07T02:31:30;102345.50;;;-11.59;75.54
77869;BME280;67231;59.144;37.934;2023-12-07T02:33:57;102349.78;;;-11.58;75.57
77869;BME280;67231;59.144;37.934;2023-12-07T02:36:24;102355.03;;;-11.53;75.43
77869;BME280;67231;59.144;37.934;2023-12-07T02:38:56;102360.94;;;-11.56;75.25
77869;BME280;67231;59.144;37.934;2023-12-07T02:41:23;102365.94;;;-11.60;75.35
77869;BME280;67231;59.144;37.934;2023-12-07T02:43:52;102360.81;;;-11.60;74.92
77869;BME280;67231;59.144;37.934;2023-12-07T02:46:19;102356.41;;;-11.64;75.28
77869;BME280;67231;59.144;37.934;2023-12-07T02:48:45;102368.41;;;-11.63;74.89
77869;BME280;67231;59.144;37.934;2023-12-07T02:51:12;102369.28;;;-11.63;75.50
77869;BME280;67231;59.144;37.934;2023-12-07T02:53:39;102367.56;;;-11.62;75.76
77869;BME280;67231;59.144;37.934;2023-12-07T02:56:06;102370.91;;;-11.65;75.01
77869;BME280;67231;59.144;37.934;2023-12-07T02:58:33;102382.13;;;-11.61;75.59
77869;BME280;67231;59.144;37.934;2023-12-07T03:00:59;102381.16;;;-11.65;75.94
77869;BME280;67231;59.144;37.934;2023-12-07T03:03:26;102392.16;;;-11.67;74.90
77869;BME280;67231;59.144;37.934;2023-12-07T03:05:52;102392.16;;;-11.67;75.57
77869;BME280;67231;59.144;37.934;2023-12-07T03:08:19;102397.19;;;-11.70;75.60
77869;BME280;67231;59.144;37.934;2023-12-07T03:10:45;102397.25;;;-11.69;75.72
77869;BME280;67231;59.144;37.934;2023-12-07T03:13:12;102403.19;;;-11.70;75.17
77869;BME280;67231;59.144;37.934;2023-12-07T03:15:38;102408.34;;;-11.68;75.18
77869;BME280;67231;59.144;37.934;2023-12-07T03:18:05;102410.84;;;-11.72;75.40
77869;BME280;67231;59.144;37.934;2023-12-07T03:20:32;102415.88;;;-11.75;76.21
77869;BME280;67231;59.144;37.934;2023-12-07T03:22:58;102406.53;;;-11.73;75.92
77869;BME280;67231;59.144;37.934;2023-12-07T03:25:25;102410.91;;;-11.68;75.37
77869;BME280;67231;59.144;37.934;2023-12-07T03:27:51;102409.28;;;-11.66;74.94
77869;BME280;67231;59.144;37.934;2023-12-07T03:30:18;102414.41;;;-11.66;75.94
77869;BME280;67231;59.144;37.934;2023-12-07T03:32:44;102410.28;;;-11.61;75.77
77869;BME280;67231;59.144;37.934;2023-12-07T03:35:11;102423.28;;;-11.55;74.96
77869;BME280;67231;59.144;37.934;2023-12-07T03:37:38;102417.31;;;-11.54;75.34
77869;BME280;67231;59.144;37.934;2023-12-07T03:40:05;102416.41;;;-11.56;74.76
77869;BME280;67231;59.144;37.934;2023-12-07T03:42:32;102427.56;;;-11.54;75.14
77869;BME280;67231;59.144;37.934;2023-12-07T03:44:58;102429.50;;;-11.47;75.00
77869;BME280;67231;59.144;37.934;2023-12-07T03:47:25;102434.69;;;-11.45;74.80
77869;BME280;67231;59.144;37.934;2023-12-07T03:49:51;102440.38;;;-11.54;75.75
77869;BME280;67231;59.144;37.934;2023-12-07T03:52:18;102442.81;;;-11.59;75.11
77869;BME280;67231;59.144;37.934;2023-12-07T03:54:44;102441.16;;;-11.57;75.46
77869;BME280;67231;59.144;37.934;2023-12-07T03:57:11;102438.66;;;-11.55;75.28
77869;BME280;67231;59.144;37.934;2023-12-07T03:59:37;102447.16;;;-11.56;75.26
77869;BME280;67231;59.144;37.934;2023-12-07T04:02:04;102449.00;;;-11.52;75.84
77869;BME280;67231;59.144;37.934;2023-12-07T04:04:30;102447.34;;;-11.50;76.08
77869;BME280;67231;59.144;37.934;2023-12-07T04:06:57;102450.78;;;-11.49;75.32
77869;BME280;67231;59.144;37.934;2023-12-07T04:09:24;102467.25;;;-11.41;75.27
77869;BME280;67231;59.144;37.934;2023-12-07T04:11:50;102465.56;;;-11.41;75.73
77869;BME280;67231;59.144;37.934;2023-12-07T04:14:17;102463.69;;;-11.46;75.82
77869;BME280;67231;59.144;37.934;2023-12-07T04:16:43;102467.84;;;-11.50;75.41
77869;BME280;67231;59.144;37.934;2023-12-07T04:19:10;102464.47;;;-11.49;75.42
77869;BME280;67231;59.144;37.934;2023-12-07T04:21:36;102464.56;;;-11.46;75.85
77869;BME280;67231;59.144;37.934;2023-12-07T04:24:06;102467.94;;;-11.47;76.09
77869;BME280;67231;59.144;37.934;2023-12-07T04:26:33;102456.84;;;-11.47;75.95
77869;BME280;67231;59.144;37.934;2023-12-07T04:28:59;102462.72;;;-11.50;75.77
77869;BME280;67231;59.144;37.934;2023-12-07T04:31:26;102454.97;;;-11.51;75.92
77869;BME280;67231;59.144;37.934;2023-12-07T04:33:52;102458.44;;;-11.49;75.98
77869;BME280;67231;59.144;37.934;2023-12-07T04:36:19;102456.78;;;-11.49;74.94
77869;BME280;67231;59.144;37.934;2023-12-07T04:38:45;102464.56;;;-11.46;76.17
77869;BME280;67231;59.144;37.934;2023-12-07T04:41:12;102462.06;;;-11.43;75.23
77869;BME280;67231;59.144;37.934;2023-12-07T04:43:38;102465.38;;;-11.47;75.41
77869;BME280;67231;59.144;37.934;2023-12-07T04:46:05;102468.75;;;-11.48;75.57
77869;BME280;67231;59.144;37.934;2023-12-07T04:48:33;102478.19;;;-11.47;75.97
77869;BME280;67231;59.144;37.934;2023-12-07T04:50:59;102475.72;;;-11.44;75.94
77869;BME280;67231;59.144;37.934;2023-12-07T04:53:26;102469.09;;;-11.37;75.30
77869;BME280;67231;59.144;37.934;2023-12-07T04:55:52;102471.91;;;-11.29;75.30
77869;BME280;67231;59.144;37.934;2023-12-07T04:58:19;102478.88;;;-11.24;75.87
77869;BME280;67231;59.144;37.934;2023-12-07T05:00:45;102474.66;;;-11.23;74.86
77869;BME280;67231;59.144;37.934;2023-12-07T05:03:12;102478.22;;;-11.18;75.67
77869;BME280;67231;59.144;37.934;2023-12-07T05:05:38;102489.38;;;-11.16;75.34
77869;BME280;67231;59.144;37.934;2023-12-07T05:08:05;102475.75;;;-11.15;75.00
77869;BME280;67231;59.144;37.934;2023-12-07T05:10:31;102482.59;;;-11.14;74.85
77869;BME280;67231;59.144;37.934;2023-12-07T05:12:58;102482.59;;;-11.14;75.10
77869;BME280;67231;59.144;37.934;2023-12-07T05:15:24;102489.41;;;-11.14;75.12
77869;BME280;67231;59.144;37.934;2023-12-07T05:17:51;102491.22;;;-11.12;75.74
77869;BME280;67231;59.144;37.934;2023-12-07T05:20:17;102487.91;;;-11.08;76.09
77869;BME280;67231;59.144;37.934;2023-12-07T05:22:48;102503.19;;;-11.11;75.16
77869;BME280;67231;59.144;37.934;2023-12-07T05:25:15;102501.56;;;-11.09;75.60
77869;BME280;67231;59.144;37.934;2023-12-07T05:27:42;102496.59;;;-11.03;75.25
77869;BME280;67231;59.144;37.934;2023-12-07T05:30:08;102493.22;;;-11.02;75.50
77869;BME280;67231;59.144;37.934;2023-12-07T05:32:35;102511.97;;;-11.03;75.25
77869;BME280;67231;59.144;37.934;2023-12-07T05:35:02;102513.78;;;-11.00;74.95
77869;BME280;67231;59.144;37.934;2023-12-07T05:37:29;102506.09;;;-11.00;75.09
77869;BME280;67231;59.144;37.934;2023-12-07T05:39:56;102509.47;;;-11.01;74.70
77869;BME280;67231;59.144;37.934;2023-12-07T05:42:22;102511.97;;;-11.03;75.59
77869;BME280;67231;59.144;37.934;2023-12-07T05:44:49;102510.34;;;-11.01;75.41
77869;BME280;67231;59.144;37.934;2023-12-07T05:47:15;102507.75;;;-11.02;75.07
77869;BME280;67231;59.144;37.934;2023-12-07T05:49:42;102512.97;;;-10.99;75.34
77869;BME280;67231;59.144;37.934;2023-12-07T05:52:09;102520.72;;;-10.97;75.41
77869;BME280;67231;59.144;37.934;2023-12-07T05:54:35;102520.72;;;-10.97;74.51
77869;BME280;67231;59.144;37.934;2023-12-07T05:57:02;102516.38;;;-10.99;74.62
77869;BME280;67231;59.144;37.934;2023-12-07T05:59:28;102524.88;;;-11.00;74.61
77869;BME280;67231;59.144;37.934;2023-12-07T06:01:55;102518.94;;;-10.99;75.25
77869;BME280;67231;59.144;37.934;2023-12-07T06:04:22;102530.06;;;-10.98;74.18
77869;BME280;67231;59.144;37.934;2023-12-07T06:06:49;102529.22;;;-10.99;75.01
77869;BME280;67231;59.144;37.934;2023-12-07T06:09:15;102528.34;;;-10.99;74.75
77869;BME280;67231;59.144;37.934;2023-12-07T06:11:42;102531.81;;;-10.97;75.56
77869;BME280;67231;59.144;37.934;2023-12-07T06:14:08;102518.22;;;-10.94;75.19
77869;BME280;67231;59.144;37.934;2023-12-07T06:16:35;102529.44;;;-10.91;74.50
77869;BME280;67231;59.144;37.934;2023-12-07T06:19:01;102524.28;;;-10.92;74.76
77869;BME280;67231;59.144;37.934;2023-12-07T06:21:29;102530.31;;;-10.90;74.67
77869;BME280;67231;59.144;37.934;2023-12-07T06:23:56;102539.66;;;-10.92;74.32
77869;BME280;67231;59.144;37.934;2023-12-07T06:26:25;102531.06;;;-10.94;74.37
77869;BME280;67231;59.144;37.934;2023-12-07T06:28:51;102535.19;;;-10.98;75.01
77869;BME280;67231;59.144;37.934;2023-12-07T06:31:18;102540.38;;;-10.96;74.79
77869;BME280;67231;59.144;37.934;2023-12-07T06:33:48;102539.56;;;-10.95;74.83
77869;BME280;67231;59.144;37.934;2023-12-07T06:36:21;102536.22;;;-10.93;74.05
77869;BME280;67231;59.144;37.934;2023-12-07T06:38:48;102538.81;;;-10.91;74.13
77869;BME280;67231;59.144;37.934;2023-12-07T06:41:15;102535.44;;;-10.90;73.88
77869;BME280;67231;59.144;37.934;2023-12-07T06:43:44;102531.22;;;-10.88;74.50
77869;BME280;67231;59.144;37.934;2023-12-07T06:46:12;102538.03;;;-10.89;74.05
77869;BME280;67231;59.144;37.934;2023-12-07T06:48:41;102550.88;;;-10.89;73.65
77869;BME280;67231;59.144;37.934;2023-12-07T06:51:08;102535.38;;;-10.92;74.17
77869;BME280;67231;59.144;37.934;2023-12-07T06:53:34;102543.88;;;-10.94;74.16
77869;BME280;67231;59.144;37.934;2023-12-07T06:56:01;102549.97;;;-10.91;74.48
77869;BME280;67231;59.144;37.934;2023-12-07T06:58:28;102549.13;;;-10.90;73.64
77869;BME280;67231;59.144;37.934;2023-12-07T07:00:54;102553.38;;;-10.90;73.81
77869;BME280;67231;59.144;37.934;2023-12-07T07:03:21;102550.00;;;-10.89;74.48
77869;BME280;67231;59.144;37.934;2023-12-07T07:05:47;102544.88;;;-10.89;74.80
77869;BME280;67231;59.144;37.934;2023-12-07T07:08:14;102554.19;;;-10.91;74.46
77869;BME280;67231;59.144;37.934;2023-12-07T07:10:40;102554.19;;;-10.91;73.59
77869;BME280;67231;59.144;37.934;2023-12-07T07:13:06;102554.19;;;-10.91;74.21
77869;BME280;67231;59.144;37.934;2023-12-07T07:15:33;102556.09;;;-10.86;74.19
77869;BME280;67231;59.144;37.934;2023-12-07T07:18:01;102556.19;;;-10.83;73.96
77869;BME280;67231;59.144;37.934;2023-12-07T07:20:28;102570.72;;;-10.83;73.55
77869;BME280;67231;59.144;37.934;2023-12-07T07:22:54;102570.81;;;-10.80;73.79
77869;BME280;67231;59.144;37.934;2023-12-07T07:25:21;102568.25;;;-10.78;73.88
77869;BME280;67231;59.144;37.934;2023-12-07T07:27:48;102568.25;;;-10.78;73.09
77869;BME280;67231;59.144;37.934;2023-12-07T07:30:15;102571.66;;;-10.79;74.21
77869;BME280;67231;59.144;37.934;2023-12-07T07:32:41;102573.44;;;-10.77;73.97
77869;BME280;67231;59.144;37.934;2023-12-07T07:35:08;102569.34;;;-10.72;73.77
77869;BME280;67231;59.144;37.934;2023-12-07T07:37:34;102567.69;;;-10.70;72.88
77869;BME280;67231;59.144;37.934;2023-12-07T07:40:01;102573.66;;;-10.69;73.42
77869;BME280;67231;59.144;37.934;2023-12-07T07:42:33;102562.78;;;-10.62;73.79
77869;BME280;67231;59.144;37.934;2023-12-07T07:45:00;102579.97;;;-10.58;73.58
77869;BME280;67231;59.144;37.934;2023-12-07T07:47:26;102577.41;;;-10.58;73.01
77869;BME280;67231;59.144;37.934;2023-12-07T07:49:53;102571.63;;;-10.52;73.15
77869;BME280;67231;59.144;37.934;2023-12-07T07:52:19;102577.69;;;-10.49;73.29
77869;BME280;67231;59.144;37.934;2023-12-07T07:54:46;102578.44;;;-10.53;72.45
77869;BME280;67231;59.144;37.934;2023-12-07T07:57:12;102576.69;;;-10.54;73.42
77869;BME280;67231;59.144;37.934;2023-12-07T07:59:39;102579.44;;;-10.48;73.13
77869;BME280;67231;59.144;37.934;2023-12-07T08:02:05;102588.25;;;-10.39;72.37
77869;BME280;67231;59.144;37.934;2023-12-07T08:04:32;102591.72;;;-10.37;72.56
77869;BME280;67231;59.144;37.934;2023-12-07T08:06:58;102593.41;;;-10.38;72.57
77869;BME280;67231;59.144;37.934;2023-12-07T08:09:25;102587.59;;;-10.31;72.65
77869;BME280;67231;59.144;37.934;2023-12-07T08:11:52;102600.69;;;-10.21;72.21
77869;BME280;67231;59.144;37.934;2023-12-07T08:14:18;102593.94;;;-10.18;72.21
77869;BME280;67231;59.144;37.934;2023-12-07T08:16:45;102600.69;;;-10.21;72.51
77869;BME280;67231;59.144;37.934;2023-12-07T08:19:13;102598.13;;;-10.21;72.74
77869;BME280;67231;59.144;37.934;2023-12-07T08:21:39;102598.16;;;-10.20;72.01
77869;BME280;67231;59.144;37.934;2023-12-07T08:24:06;102603.16;;;-10.25;72.53
77869;BME280;67231;59.144;37.934;2023-12-07T08:26:33;102597.03;;;-10.30;72.82
77869;BME280;67231;59.144;37.934;2023-12-07T08:29:00;102594.56;;;-10.27;72.29
77869;BME280;67231;59.144;37.934;2023-12-07T08:31:26;102600.69;;;-10.21;72.36
77869;BME280;67231;59.144;37.934;2023-12-07T08:33:53;102599.97;;;-10.17;72.40
77869;BME280;67231;59.144;37.934;2023-12-07T08:36:20;102602.53;;;-10.17;71.58
77869;BME280;67231;59.144;37.934;2023-12-07T08:38:46;102600.78;;;-10.18;71.73
77869;BME280;67231;59.144;37.934;2023-12-07T08:41:13;102607.75;;;-10.13;71.22
77869;BME280;67231;59.144;37.934;2023-12-07T08:43:39;102612.91;;;-10.13;71.75
77869;BME280;67231;59.144;37.934;2023-12-07T08:46:06;102606.91;;;-10.13;71.85
77869;BME280;67231;59.144;37.934;2023-12-07T08:48:33;102604.28;;;-10.15;71.88
77869;BME280;67231;59.144;37.934;2023-12-07T08:51:00;102613.88;;;-10.09;71.38
77869;BME280;67231;59.144;37.934;2023-12-07T08:53:28;102611.09;;;-10.17;71.35
77869;BME280;67231;59.144;37.934;2023-12-07T08:55:55;102611.84;;;-10.19;71.71
77869;BME280;67231;59.144;37.934;2023-12-07T08:58:21;102617.94;;;-10.17;71.88
77869;BME280;67231;59.144;37.934;2023-12-07T09:00:48;102613.69;;;-10.15;72.34
77869;BME280;67231;59.144;37.934;2023-12-07T09:03:15;102617.16;;;-10.13;71.67
77869;BME280;67231;59.144;37.934;2023-12-07T09:05:41;102616.22;;;-10.17;72.23
77869;BME280;67231;59.144;37.934;2023-12-07T09:08:08;102612.22;;;-10.07;71.94
77869;BME280;67231;59.144;37.934;2023-12-07T09:10:35;102617.53;;;-10.01;71.50
77869;BME280;67231;59.144;37.934;2023-12-07T09:13:01;102610.91;;;-9.93;71.45
77869;BME280;67231;59.144;37.934;2023-12-07T09:15:28;102613.47;;;-9.93;70.83
77869;BME280;67231;59.144;37.934;2023-12-07T09:17:54;102621.16;;;-9.93;70.82
77869;BME280;67231;59.144;37.934;2023-12-07T09:20:21;102625.53;;;-9.90;71.45
77869;BME280;67231;59.144;37.934;2023-12-07T09:22:48;102618.88;;;-9.83;71.01
77869;BME280;67231;59.144;37.934;2023-12-07T09:25:18;102618.09;;;-9.79;70.59
77869;BME280;67231;59.144;37.934;2023-12-07T09:27:46;102620.84;;;-9.73;70.48
77869;BME280;67231;59.144;37.934;2023-12-07T09:30:14;102623.50;;;-9.70;70.16
77869;BME280;67231;59.144;37.934;2023-12-07T09:32:41;102620.03;;;-9.72;70.29
77869;BME280;67231;59.144;37.934;2023-12-07T09:35:09;102636.94;;;-9.80;70.37
77869;BME280;67231;59.144;37.934;2023-12-07T09:37:41;102633.28;;;-9.89;70.95
77869;BME280;67231;59.144;37.934;2023-12-07T09:40:07;102633.78;;;-10.00;70.94
77869;BME280;67231;59.144;37.934;2023-12-07T09:42:35;102634.31;;;-10.12;71.17
77869;BME280;67231;59.144;37.934;2023-12-07T09:45:01;102640.28;;;-10.13;70.83
77869;BME280;67231;59.144;37.934;2023-12-07T09:47:32;102638.28;;;-10.23;70.91
77869;BME280;67231;59.144;37.934;2023-12-07T09:50:01;102644.19;;;-10.26;70.73
77869;BME280;67231;59.144;37.934;2023-12-07T09:52:29;102634.63;;;-10.32;70.25
77869;BME280;67231;59.144;37.934;2023-12-07T09:54:56;102639.50;;;-10.41;71.38
77869;BME280;67231;59.144;37.934;2023-12-07T09:57:23;102641.06;;;-10.46;71.56
77869;BME280;67231;59.144;37.934;2023-12-07T09:59:50;102629.00;;;-10.49;71.15
77869;BME280;67231;59.144;37.934;2023-12-07T10:02:17;102631.53;;;-10.50;70.53
77869;BME280;67231;59.144;37.934;2023-12-07T10:04:44;102631.50;;;-10.52;70.39
77869;BME280;67231;59.144;37.934;2023-12-07T10:07:10;102633.28;;;-10.49;70.91
77869;BME280;67231;59.144;37.934;2023-12-07T10:09:40;102631.50;;;-10.52;71.43
77869;BME280;67231;59.144;37.934;2023-12-07T10:12:07;102631.50;;;-10.52;71.32
77869;BME280;67231;59.144;37.934;2023-12-07T10:14:34;102631.44;;;-10.53;70.93
77869;BME280;67231;59.144;37.934;2023-12-07T10:17:00;102634.84;;;-10.54;70.81
77869;BME280;67231;59.144;37.934;2023-12-07T10:19:27;102631.16;;;-10.63;70.33
77869;BME280;67231;59.144;37.934;2023-12-07T10:21:54;102637.06;;;-10.65;70.79
77869;BME280;67231;59.144;37.934;2023-12-07T10:24:22;102641.00;;;-10.76;69.87
77869;BME280;67231;59.144;37.934;2023-12-07T10:26:49;102638.09;;;-10.87;70.21
77869;BME280;67231;59.144;37.934;2023-12-07T10:29:19;102638.81;;;-10.91;71.00
77869;BME280;67231;59.144;37.934;2023-12-07T10:31:46;102651.63;;;-10.93;71.25
77869;BME280;67231;59.144;37.934;2023-12-07T10:34:17;102638.75;;;-10.94;70.03
77869;BME280;67231;59.144;37.934;2023-12-07T10:36:48;102650.72;;;-10.93;70.72
77869;BME280;67231;59.144;37.934;2023-12-07T10:39:19;102642.13;;;-10.95;70.74
77869;BME280;67231;59.144;37.934;2023-12-07T10:41:47;102637.84;;;-10.95;70.58
77869;BME280;67231;59.144;37.934;2023-12-07T10:44:16;102642.00;;;-10.99;70.59
77869;BME280;67231;59.144;37.934;2023-12-07T10:46:44;102641.88;;;-11.03;70.29
77869;BME280;67231;59.144;37.934;2023-12-07T10:49:17;102649.50;;;-11.05;70.44
77869;BME280;67231;59.144;37.934;2023-12-07T10:51:51;102646.63;;;-11.14;70.89
77869;BME280;67231;59.144;37.934;2023-12-07T10:54:22;102649.72;;;-11.24;70.99
77869;BME280;67231;59.144;37.934;2023-12-07T10:56:49;102646.13;;;-11.29;71.52
77869;BME280;67231;59.144;37.934;2023-12-07T10:59:17;102647.59;;;-11.38;71.45
77869;BME280;67231;59.144;37.934;2023-12-07T11:01:45;102652.59;;;-11.41;70.82
77869;BME280;67231;59.144;37.934;2023-12-07T11:04:13;102659.34;;;-11.43;70.82
77869;BME280;67231;59.144;37.934;2023-12-07T11:06:42;102655.97;;;-11.42;70.92
77869;BME280;67231;59.144;37.934;2023-12-07T11:09:21;102645.72;;;-11.42;71.26
77869;BME280;67231;59.144;37.934;2023-12-07T11:11:54;102650.91;;;-11.40;71.23
77869;BME280;67231;59.144;37.934;2023-12-07T11:14:24;102649.19;;;-11.40;70.71
77869;BME280;67231;59.144;37.934;2023-12-07T11:16:52;102656.81;;;-11.41;70.63
77869;BME280;67231;59.144;37.934;2023-12-07T11:22:04;102651.91;;;-11.35;70.88
77869;BME280;67231;59.144;37.934;2023-12-07T11:24:30;102650.38;;;-11.30;71.00
77869;BME280;67231;59.144;37.934;2023-12-07T11:26:57;102658.13;;;-11.28;70.33
77869;BME280;67231;59.144;37.934;2023-12-07T11:29:25;102653.09;;;-11.25;69.87
77869;BME280;67231;59.144;37.934;2023-12-07T11:31:55;102661.72;;;-11.23;70.63
77869;BME280;67231;59.144;37.934;2023-12-07T11:34:40;102651.47;;;-11.23;70.61
77869;BME280;67231;59.144;37.934;2023-12-07T11:37:08;102652.28;;;-11.24;70.10
77869;BME280;67231;59.144;37.934;2023-12-07T11:39:36;102652.94;;;-11.30;70.71
77869;BME280;67231;59.144;37.934;2023-12-07T11:42:07;102645.88;;;-11.37;70.21
77869;BME280;67231;59.144;37.934;2023-12-07T11:44:40;102649.97;;;-11.42;70.10
77869;BME280;67231;59.144;37.934;2023-12-07T11:47:08;102653.28;;;-11.45;71.12
77869;BME280;67231;59.144;37.934;2023-12-07T11:49:35;102661.78;;;-11.47;70.96
77869;BME280;67231;59.144;37.934;2023-12-07T11:52:19;102664.28;;;-11.49;70.08
77869;BME280;67231;59.144;37.934;2023-12-07T11:54:46;102648.81;;;-11.52;70.06
77869;BME280;67231;59.144;37.934;2023-12-07T11:57:17;102657.41;;;-11.50;70.72
77869;BME280;67231;59.144;37.934;2023-12-07T11:59:44;102653.13;;;-11.49;71.11
77869;BME280;67231;59.144;37.934;2023-12-07T12:02:11;102662.63;;;-11.47;70.90
77869;BME280;67231;59.144;37.934;2023-12-07T12:04:39;102656.59;;;-11.49;69.77
77869;BME280;67231;59.144;37.934;2023-12-07T12:07:07;102660.88;;;-11.48;70.33
77869;BME280;67231;59.144;37.934;2023-12-07T12:09:33;102671.00;;;-11.51;70.73
77869;BME280;67231;59.144;37.934;2023-12-07T12:12:00;102668.44;;;-11.51;71.04
77869;BME280;67231;59.144;37.934;2023-12-07T12:14:27;102670.91;;;-11.54;70.70
77869;BME280;67231;59.144;37.934;2023-12-07T12:16:57;102667.38;;;-11.58;71.02
77869;BME280;67231;59.144;37.934;2023-12-07T12:19:23;102671.53;;;-11.61;70.28
77869;BME280;67231;59.144;37.934;2023-12-07T12:21:50;102670.59;;;-11.63;71.06
77869;BME280;67231;59.144;37.934;2023-12-07T12:24:17;102676.66;;;-11.61;70.54
77869;BME280;67231;59.144;37.934;2023-12-07T12:26:45;102675.91;;;-11.57;70.43
77869;BME280;67231;59.144;37.934;2023-12-07T12:29:14;102669.19;;;-11.55;71.39
77869;BME280;67231;59.144;37.934;2023-12-07T12:31:41;102677.78;;;-11.53;70.19
77869;BME280;67231;59.144;37.934;2023-12-07T12:34:07;102666.63;;;-11.55;70.05
77869;BME280;67231;59.144;37.934;2023-12-07T12:36:38;102667.53;;;-11.53;69.97